Time;durP1;ratioP1;P1;durP2;ratioP2;P2;SDS_P1;SDS_P2;PMS_P1;PMS_P2;Temp;Humidity;BMP_temperature;BMP_pressure;BME280_temperature;BME280_humidity;BME280_pressure;Samples;Min_cycle;Max_cycle;Signal;HPM_P1;HPM_P2
2021/12/03 00:00:12;;;;;;;;;;;17.90;50.80;;;;;;5064844;28;43642;-81
2021/12/03 00:02:37;;;;;;;;;;;17.90;50.90;;;;;;5065392;28;43073;-81
2021/12/03 00:05:03;;;;;;;;;;;17.90;50.90;;;;;;5065424;28;43363;-80
2021/12/03 00:07:29;;;;;;;;;;;17.90;50.90;;;;;;5064847;28;42916;-81
2021/12/03 00:09:54;;;;;;;;;;;17.90;50.80;;;;;;5065004;28;43119;-81
2021/12/03 00:12:21;;;;;;;;;;;17.90;50.90;;;;;;5065178;28;43042;-81
2021/12/03 00:14:46;;;;;;;;;;;18.00;50.90;;;;;;5064636;28;43347;-81
2021/12/03 00:17:12;;;;;;;;;;;17.90;50.90;;;;;;5064855;28;43000;-81
2021/12/03 00:19:37;;;;;;;;;;;18.00;50.90;;;;;;5065100;28;43170;-82
2021/12/03 00:22:03;;;;;;;;;;;18.00;50.90;;;;;;5065247;28;42923;-82
2021/12/03 00:24:28;;;;;;;;;;;18.00;51.00;;;;;;5064088;28;43762;-82
2021/12/03 00:26:54;;;;;;;;;;;18.00;50.90;;;;;;5065133;28;43032;-82
2021/12/03 00:29:19;;;;;;;;;;;18.00;50.90;;;;;;5064703;28;43005;-83
2021/12/03 00:31:45;;;;;;;;;;;18.00;50.90;;;;;;5064829;28;43002;-82
2021/12/03 00:34:10;;;;;;;;;;;18.00;50.90;;;;;;5064587;28;43433;-82
2021/12/03 00:36:36;;;;;;;;;;;18.00;50.90;;;;;;5065334;28;42982;-82
2021/12/03 00:39:02;;;;;;;;;;;18.00;50.90;;;;;;5064761;28;43532;-82
2021/12/03 00:41:32;;;;;;;;;;;18.00;50.90;;;;;;5065360;28;42879;-82
2021/12/03 00:43:58;;;;;;;;;;;18.00;51.00;;;;;;5063083;28;44670;-82
2021/12/03 00:46:23;;;;;;;;;;;18.00;50.90;;;;;;5063853;28;42950;-82
2021/12/03 00:48:50;;;;;;;;;;;18.00;51.00;;;;;;5063852;28;43340;-81
2021/12/03 00:51:18;;;;;;;;;;;18.00;50.90;;;;;;5064357;28;43034;-82
2021/12/03 00:53:44;;;;;;;;;;;18.00;51.00;;;;;;5064739;28;43706;-81
2021/12/03 00:56:10;;;;;;;;;;;18.00;51.00;;;;;;5063356;28;43073;-80
2021/12/03 00:58:35;;;;;;;;;;;18.00;51.00;;;;;;5064291;28;42983;-82
2021/12/03 01:01:01;;;;;;;;;;;18.00;51.00;;;;;;5064994;28;42990;-81
2021/12/03 01:03:27;;;;;;;;;;;18.00;51.00;;;;;;5064132;28;43122;-82
2021/12/03 01:05:54;;;;;;;;;;;18.00;51.00;;;;;;5065041;28;42928;-81
2021/12/03 01:08:20;;;;;;;;;;;18.00;51.00;;;;;;5063229;28;43309;-80
2021/12/03 01:10:45;;;;;;;;;;;18.00;51.10;;;;;;5061585;28;43178;-82
2021/12/03 01:13:11;;;;;;;;;;;18.00;51.00;;;;;;5063298;28;44337;-82
2021/12/03 01:15:37;;;;;;;;;;;18.00;51.00;;;;;;5063775;28;42927;-80
2021/12/03 01:18:04;;;;;;;;;;;18.00;51.00;;;;;;5063632;28;42882;-81
2021/12/03 01:20:31;;;;;;;;;;;18.00;51.00;;;;;;5061428;28;43081;-82
2021/12/03 01:22:57;;;;;;;;;;;18.00;51.00;;;;;;5064299;28;43023;-81
2021/12/03 01:25:23;;;;;;;;;;;18.00;51.10;;;;;;5062841;28;43047;-81
2021/12/03 01:27:49;;;;;;;;;;;18.00;51.00;;;;;;5064153;28;42957;-80
2021/12/03 01:30:16;;;;;;;;;;;18.00;51.00;;;;;;5064326;28;42907;-82
2021/12/03 01:32:43;;;;;;;;;;;18.10;51.10;;;;;;5064058;28;43758;-79
2021/12/03 01:35:09;;;;;;;;;;;18.00;51.10;;;;;;5064601;28;42912;-81
2021/12/03 01:37:34;;;;;;;;;;;18.10;51.10;;;;;;5064403;28;42971;-81
2021/12/03 01:40:00;;;;;;;;;;;18.00;51.10;;;;;;5063798;28;42957;-80
2021/12/03 01:42:26;;;;;;;;;;;18.10;51.30;;;;;;5062054;28;43697;-81
2021/12/03 01:44:51;;;;;;;;;;;18.00;51.00;;;;;;5066007;28;43018;-81
2021/12/03 01:47:17;;;;;;;;;;;18.00;51.60;;;;;;5067549;28;43008;-82
2021/12/03 01:49:42;;;;;;;;;;;18.10;51.10;;;;;;5067855;28;42902;-81
2021/12/03 01:52:08;;;;;;;;;;;18.10;51.10;;;;;;5048560;28;43005;-82
2021/12/03 01:54:34;;;;;;;;;;;18.10;51.10;;;;;;5054199;28;42820;-80
2021/12/03 01:56:59;;;;;;;;;;;18.10;51.10;;;;;;5047547;28;42779;-79
2021/12/03 01:59:25;;;;;;;;;;;18.10;51.10;;;;;;5062488;28;42865;-82
2021/12/03 02:01:51;;;;;;;;;;;18.10;51.00;;;;;;5067461;28;43355;-82
2021/12/03 02:04:16;;;;;;;;;;;18.10;51.00;;;;;;5064746;28;42984;-81
2021/12/03 02:06:42;;;;;;;;;;;18.10;51.10;;;;;;5066623;28;42920;-82
2021/12/03 02:09:08;;;;;;;;;;;18.10;51.00;;;;;;5066903;28;42992;-82
2021/12/03 02:11:33;;;;;;;;;;;18.10;50.90;;;;;;5067633;28;43276;-82
2021/12/03 02:13:59;;;;;;;;;;;18.10;50.90;;;;;;5066750;28;43024;-82
2021/12/03 02:16:25;;;;;;;;;;;18.10;50.90;;;;;;5049683;28;43421;-83
2021/12/03 02:18:51;;;;;;;;;;;18.10;50.90;;;;;;5058803;28;43023;-83
2021/12/03 02:21:17;;;;;;;;;;;18.10;51.40;;;;;;5067064;28;43554;-82
2021/12/03 02:23:42;;;;;;;;;;;18.10;50.80;;;;;;5066188;28;43251;-80
2021/12/03 02:26:08;;;;;;;;;;;18.10;50.80;;;;;;5066904;28;43653;-82
2021/12/03 02:28:38;;;;;;;;;;;18.10;51.00;;;;;;5066899;28;42924;-83
2021/12/03 02:31:04;;;;;;;;;;;18.10;50.80;;;;;;5066587;28;42948;-82
2021/12/03 02:33:31;;;;;;;;;;;18.10;50.80;;;;;;5065220;28;42958;-82
2021/12/03 02:35:57;;;;;;;;;;;18.10;50.80;;;;;;5066859;28;43701;-84
2021/12/03 02:38:23;;;;;;;;;;;18.10;50.80;;;;;;5067148;28;43184;-82
2021/12/03 02:40:49;;;;;;;;;;;18.10;50.80;;;;;;5066717;28;43486;-83
2021/12/03 02:43:15;;;;;;;;;;;18.10;50.70;;;;;;5066877;28;42918;-82
2021/12/03 02:45:41;;;;;;;;;;;18.10;50.70;;;;;;5066685;28;43341;-84
2021/12/03 02:48:06;;;;;;;;;;;18.10;50.70;;;;;;5066223;28;43083;-82
2021/12/03 02:50:33;;;;;;;;;;;18.10;50.70;;;;;;5066247;28;42968;-82
2021/12/03 02:52:58;;;;;;;;;;;18.10;50.70;;;;;;5066551;28;42918;-83
2021/12/03 02:55:24;;;;;;;;;;;18.10;50.70;;;;;;5066000;28;42954;-83
2021/12/03 02:57:50;;;;;;;;;;;18.10;50.60;;;;;;5066430;28;42973;-82
2021/12/03 03:00:18;;;;;;;;;;;18.10;50.70;;;;;;5066434;28;43413;-83
2021/12/03 03:02:44;;;;;;;;;;;18.10;50.70;;;;;;5065498;28;43030;-81
2021/12/03 03:05:10;;;;;;;;;;;18.10;50.70;;;;;;5065726;28;43559;-82
2021/12/03 03:07:36;;;;;;;;;;;18.10;50.70;;;;;;5065769;28;43134;-78
2021/12/03 03:10:03;;;;;;;;;;;18.10;50.70;;;;;;5065727;28;43723;-82
2021/12/03 03:12:29;;;;;;;;;;;18.10;50.70;;;;;;5066179;28;42950;-81
2021/12/03 03:14:56;;;;;;;;;;;18.10;50.70;;;;;;5066421;28;43564;-82
2021/12/03 03:17:22;;;;;;;;;;;18.10;50.70;;;;;;5066688;28;42967;-81
2021/12/03 03:19:48;;;;;;;;;;;18.10;50.70;;;;;;5066059;28;44313;-82
2021/12/03 03:22:14;;;;;;;;;;;18.10;50.70;;;;;;5066069;28;42940;-82
2021/12/03 03:24:40;;;;;;;;;;;18.10;50.70;;;;;;5066361;28;43457;-83
2021/12/03 03:27:06;;;;;;;;;;;18.10;50.70;;;;;;5066048;28;42917;-81
2021/12/03 03:29:32;;;;;;;;;;;18.10;50.70;;;;;;5065911;28;42932;-82
2021/12/03 03:31:58;;;;;;;;;;;18.10;50.70;;;;;;5066078;28;42928;-81
2021/12/03 03:34:23;;;;;;;;;;;18.10;50.70;;;;;;5065907;28;42943;-81
2021/12/03 03:36:49;;;;;;;;;;;18.10;50.60;;;;;;5065604;28;43068;-79
2021/12/03 03:39:15;;;;;;;;;;;18.10;50.60;;;;;;5065684;28;43582;-82
2021/12/03 03:41:41;;;;;;;;;;;18.10;50.60;;;;;;5065413;28;43052;-82
2021/12/03 03:44:07;;;;;;;;;;;18.10;50.60;;;;;;5065737;28;43901;-80
2021/12/03 03:46:33;;;;;;;;;;;18.10;50.60;;;;;;5064108;28;43037;-82
2021/12/03 03:48:58;;;;;;;;;;;18.10;50.60;;;;;;5066320;28;43000;-83
2021/12/03 03:51:24;;;;;;;;;;;18.10;50.60;;;;;;5065812;28;42874;-82
2021/12/03 03:53:49;;;;;;;;;;;18.10;50.60;;;;;;5065554;28;42874;-83
2021/12/03 03:56:15;;;;;;;;;;;18.10;50.60;;;;;;5063443;28;43018;-82
2021/12/03 03:58:41;;;;;;;;;;;18.10;50.60;;;;;;5065070;28;43472;-82
2021/12/03 04:01:11;;;;;;;;;;;18.10;50.60;;;;;;5064960;28;42986;-81
2021/12/03 04:03:36;;;;;;;;;;;18.10;50.60;;;;;;5065215;28;42838;-83
2021/12/03 04:06:02;;;;;;;;;;;18.10;50.70;;;;;;5064345;28;42979;-81
2021/12/03 04:08:30;;;;;;;;;;;18.10;50.50;;;;;;5063965;28;43403;-83
2021/12/03 04:10:56;;;;;;;;;;;18.10;50.50;;;;;;5065242;28;42964;-82
2021/12/03 04:13:25;;;;;;;;;;;18.10;50.50;;;;;;5064479;28;43647;-81
2021/12/03 04:15:51;;;;;;;;;;;18.10;50.50;;;;;;5064247;28;42880;-81
2021/12/03 04:18:17;;;;;;;;;;;18.20;50.50;;;;;;5065333;28;43638;-82
2021/12/03 04:20:42;;;;;;;;;;;18.10;50.50;;;;;;5065012;28;43000;-82
2021/12/03 04:23:08;;;;;;;;;;;18.10;50.40;;;;;;5065335;28;42928;-83
2021/12/03 04:25:34;;;;;;;;;;;18.10;50.40;;;;;;5065270;28;42875;-82
2021/12/03 04:28:00;;;;;;;;;;;18.20;50.50;;;;;;5065232;28;43546;-82
2021/12/03 04:30:27;;;;;;;;;;;18.10;50.40;;;;;;5065096;28;42930;-81
2021/12/03 04:32:53;;;;;;;;;;;18.10;50.70;;;;;;5051262;28;43716;-82
2021/12/03 04:35:18;;;;;;;;;;;18.20;50.60;;;;;;5045065;28;43128;-82
2021/12/03 04:37:44;;;;;;;;;;;18.10;50.50;;;;;;5045206;28;42908;-82
2021/12/03 04:40:11;;;;;;;;;;;18.20;50.60;;;;;;5043461;28;42928;-82
2021/12/03 04:42:37;;;;;;;;;;;18.10;50.50;;;;;;5044495;28;43363;-82
2021/12/03 04:45:04;;;;;;;;;;;18.10;50.60;;;;;;5043672;28;43541;-80
2021/12/03 04:47:29;;;;;;;;;;;18.10;50.70;;;;;;5044364;28;43677;-81
2021/12/03 04:49:55;;;;;;;;;;;18.10;50.70;;;;;;5044110;28;42910;-82
2021/12/03 04:52:21;;;;;;;;;;;18.20;50.70;;;;;;5044154;28;43635;-82
2021/12/03 04:54:46;;;;;;;;;;;18.20;50.60;;;;;;5057522;28;43020;-82
2021/12/03 04:57:12;;;;;;;;;;;18.20;50.50;;;;;;5064748;28;43369;-82
2021/12/03 04:59:37;;;;;;;;;;;18.20;50.80;;;;;;5052314;28;42891;-83
2021/12/03 05:02:03;;;;;;;;;;;18.20;50.70;;;;;;5054231;28;42851;-83
2021/12/03 05:04:36;;;;;;;;;;;18.20;50.70;;;;;;5065018;28;43062;-82
2021/12/03 05:09:37;;;;;;;;;;;18.20;50.60;;;;;;5062182;28;42917;-82
2021/12/03 05:12:03;;;;;;;;;;;18.20;50.70;;;;;;5064269;28;43150;-81
2021/12/03 05:14:29;;;;;;;;;;;18.20;50.80;;;;;;5056830;28;43688;-82
2021/12/03 05:16:55;;;;;;;;;;;18.20;50.70;;;;;;5053178;28;43562;-79
2021/12/03 05:19:21;;;;;;;;;;;18.20;50.70;;;;;;5057044;28;42953;-84
2021/12/03 05:21:46;;;;;;;;;;;18.20;50.60;;;;;;5059756;28;43558;-78
2021/12/03 05:24:12;;;;;;;;;;;18.20;50.60;;;;;;5048803;28;42981;-78
2021/12/03 05:26:38;;;;;;;;;;;18.20;50.70;;;;;;5047867;28;43055;-78
2021/12/03 05:29:04;;;;;;;;;;;18.20;50.70;;;;;;5047942;28;42950;-79
2021/12/03 05:31:30;;;;;;;;;;;18.20;50.80;;;;;;5047681;28;43476;-78
2021/12/03 05:33:56;;;;;;;;;;;18.20;50.80;;;;;;5048442;28;42843;-79
2021/12/03 05:36:21;;;;;;;;;;;18.20;50.80;;;;;;5048186;28;43095;-78
2021/12/03 05:38:47;;;;;;;;;;;18.20;51.30;;;;;;5047952;28;42922;-78
2021/12/03 05:41:12;;;;;;;;;;;18.20;50.80;;;;;;5047941;28;42870;-79
2021/12/03 05:43:38;;;;;;;;;;;18.20;50.90;;;;;;5047751;28;42965;-79
2021/12/03 05:46:03;;;;;;;;;;;18.20;51.00;;;;;;5047645;28;42949;-78
2021/12/03 05:48:29;;;;;;;;;;;18.20;51.20;;;;;;5050858;28;42880;-81
2021/12/03 05:50:54;;;;;;;;;;;18.20;51.20;;;;;;5066306;28;43389;-82
2021/12/03 05:53:20;;;;;;;;;;;18.20;51.80;;;;;;5066270;28;42944;-78
2021/12/03 05:55:45;;;;;;;;;;;18.20;51.20;;;;;;5066407;28;43774;-78
2021/12/03 05:58:11;;;;;;;;;;;18.20;50.10;;;;;;5067013;28;42855;-79
2021/12/03 06:00:39;;;;;;;;;;;18.10;47.90;;;;;;5067738;28;43801;-76
2021/12/03 06:03:04;;;;;;;;;;;18.10;46.00;;;;;;5067225;28;42978;-80
2021/12/03 06:05:30;;;;;;;;;;;18.10;45.70;;;;;;5067448;28;42838;-78
2021/12/03 06:07:56;;;;;;;;;;;18.10;47.30;;;;;;5067289;28;42886;-84
2021/12/03 06:10:21;;;;;;;;;;;18.10;46.00;;;;;;5067241;28;42787;-82
2021/12/03 06:12:47;;;;;;;;;;;18.10;45.50;;;;;;5057880;28;43001;-81
2021/12/03 06:15:13;;;;;;;;;;;18.10;45.90;;;;;;5053848;28;43422;-76
2021/12/03 06:17:39;;;;;;;;;;;18.10;46.90;;;;;;5065165;28;43008;-82
2021/12/03 06:20:05;;;;;;;;;;;18.10;48.30;;;;;;5066678;28;43638;-79
2021/12/03 06:22:30;;;;;;;;;;;18.10;48.80;;;;;;5066255;28;42982;-77
2021/12/03 06:24:56;;;;;;;;;;;18.10;48.80;;;;;;5066693;28;43159;-81
2021/12/03 06:27:24;;;;;;;;;;;18.10;49.00;;;;;;5067047;28;42834;-75
2021/12/03 06:29:50;;;;;;;;;;;18.10;49.10;;;;;;5066165;28;43053;-77
2021/12/03 06:32:16;;;;;;;;;;;18.10;49.20;;;;;;5065939;28;42906;-79
2021/12/03 06:34:41;;;;;;;;;;;18.10;49.20;;;;;;5066879;28;43600;-80
2021/12/03 06:37:07;;;;;;;;;;;18.10;49.30;;;;;;5066612;28;42865;-79
2021/12/03 06:39:32;;;;;;;;;;;18.10;49.40;;;;;;5066406;28;43967;-79
2021/12/03 06:41:58;;;;;;;;;;;18.10;49.40;;;;;;5066290;28;42960;-77
2021/12/03 06:44:25;;;;;;;;;;;18.10;49.50;;;;;;5066812;28;42961;-78
2021/12/03 06:46:53;;;;;;;;;;;18.10;49.50;;;;;;5065858;28;42954;-82
2021/12/03 06:49:19;;;;;;;;;;;18.10;49.50;;;;;;5064962;28;43464;-79
2021/12/03 06:51:45;;;;;;;;;;;18.10;49.60;;;;;;5066014;28;42959;-77
2021/12/03 06:54:11;;;;;;;;;;;18.10;49.60;;;;;;5066263;28;42975;-83
2021/12/03 06:56:52;;;;;;;;;;;18.10;49.60;;;;;;5064973;28;42972;-85
2021/12/03 06:59:21;;;;;;;;;;;18.10;49.60;;;;;;5066418;28;43542;-84
2021/12/03 07:01:47;;;;;;;;;;;18.10;49.80;;;;;;5067196;28;42981;-78
2021/12/03 07:04:12;;;;;;;;;;;18.10;49.90;;;;;;5066864;28;42877;-82
2021/12/03 07:06:38;;;;;;;;;;;18.10;50.10;;;;;;5066928;28;43042;-76
2021/12/03 07:09:04;;;;;;;;;;;18.10;50.20;;;;;;5066586;28;43524;-83
2021/12/03 07:11:29;;;;;;;;;;;18.10;50.30;;;;;;5066272;28;42966;-77
2021/12/03 07:13:55;;;;;;;;;;;18.10;50.50;;;;;;5066306;28;42878;-78
2021/12/03 07:16:20;;;;;;;;;;;18.10;50.50;;;;;;5066685;28;42899;-78
2021/12/03 07:18:46;;;;;;;;;;;18.10;50.60;;;;;;5066338;28;43019;-80
2021/12/03 07:21:12;;;;;;;;;;;18.10;50.60;;;;;;5066978;28;42989;-88
2021/12/03 07:23:37;;;;;;;;;;;18.10;50.50;;;;;;5066397;28;43028;-77
2021/12/03 07:26:03;;;;;;;;;;;18.10;50.60;;;;;;5067150;28;42776;-77
2021/12/03 07:28:29;;;;;;;;;;;18.10;50.50;;;;;;5066783;28;43245;-81
2021/12/03 07:30:55;;;;;;;;;;;18.10;50.50;;;;;;5066362;28;43043;-85
2021/12/03 07:33:21;;;;;;;;;;;18.10;50.50;;;;;;5066374;28;44013;-76
2021/12/03 07:35:46;;;;;;;;;;;18.10;50.50;;;;;;5066258;28;43083;-78
2021/12/03 07:38:14;;;;;;;;;;;18.10;50.50;;;;;;5065956;28;43479;-86
2021/12/03 07:40:41;;;;;;;;;;;18.10;50.50;;;;;;5065492;28;42865;-84
2021/12/03 07:43:06;;;;;;;;;;;18.10;50.50;;;;;;5066170;28;43495;-86
2021/12/03 07:45:32;;;;;;;;;;;18.10;50.40;;;;;;5066504;28;42828;-81
2021/12/03 07:47:57;;;;;;;;;;;18.10;50.40;;;;;;5066294;28;43618;-85
2021/12/03 07:50:23;;;;;;;;;;;18.10;50.40;;;;;;5066102;28;42829;-89
2021/12/03 07:52:48;;;;;;;;;;;18.10;50.40;;;;;;5065976;28;43750;-85
2021/12/03 07:55:14;;;;;;;;;;;18.10;50.40;;;;;;5064937;28;42973;-86
2021/12/03 07:57:39;;;;;;;;;;;18.10;50.30;;;;;;5066054;28;43603;-89
2021/12/03 08:00:06;;;;;;;;;;;18.10;50.30;;;;;;5066476;28;42766;-91
2021/12/03 08:02:32;;;;;;;;;;;18.10;50.30;;;;;;5066149;28;42803;-88
2021/12/03 08:04:57;;;;;;;;;;;18.10;50.30;;;;;;5064370;28;42899;-76
2021/12/03 08:07:23;;;;;;;;;;;18.10;50.30;;;;;;5065218;28;42996;-77
2021/12/03 08:09:49;;;;;;;;;;;18.10;50.30;;;;;;5064722;28;42898;-91
2021/12/03 08:12:14;;;;;;;;;;;18.10;50.30;;;;;;5066144;28;42997;-85
2021/12/03 08:14:40;;;;;;;;;;;18.10;50.40;;;;;;5064039;28;42975;-82
2021/12/03 08:17:05;;;;;;;;;;;18.10;50.40;;;;;;5065756;28;42930;-77
2021/12/03 08:19:31;;;;;;;;;;;18.10;50.30;;;;;;5065851;28;42959;-89
2021/12/03 08:21:57;;;;;;;;;;;18.10;50.30;;;;;;5065836;28;43086;-77
2021/12/03 08:24:22;;;;;;;;;;;18.10;50.30;;;;;;5064653;28;43253;-78
2021/12/03 08:26:48;;;;;;;;;;;18.10;50.40;;;;;;5065889;28;42819;-77
2021/12/03 08:29:13;;;;;;;;;;;18.10;50.40;;;;;;5065719;28;42944;-80
2021/12/03 08:31:39;;;;;;;;;;;18.10;50.40;;;;;;5065669;28;43598;-88
2021/12/03 08:34:05;;;;;;;;;;;18.10;50.40;;;;;;5065756;28;42996;-80
2021/12/03 08:36:31;;;;;;;;;;;18.10;50.30;;;;;;5065139;28;42782;-77
2021/12/03 08:38:57;;;;;;;;;;;18.10;50.30;;;;;;5065069;28;43474;-88
2021/12/03 08:41:22;;;;;;;;;;;18.10;50.30;;;;;;5064938;28;43623;-90
2021/12/03 08:43:49;;;;;;;;;;;18.10;50.30;;;;;;5065107;28;42936;-87
2021/12/03 08:46:27;;;;;;;;;;;18.10;50.20;;;;;;5065598;28;43950;-84
2021/12/03 08:48:53;;;;;;;;;;;18.10;50.20;;;;;;5065279;28;42928;-86
2021/12/03 08:51:31;;;;;;;;;;;18.10;50.20;;;;;;5065173;28;43633;-85
2021/12/03 08:56:41;;;;;;;;;;;18.10;50.20;;;;;;5065365;28;43074;-84
2021/12/03 08:59:06;;;;;;;;;;;18.20;50.20;;;;;;5065220;28;42892;-78
2021/12/03 09:01:32;;;;;;;;;;;18.10;50.10;;;;;;5065422;28;43961;-91
2021/12/03 09:03:58;;;;;;;;;;;18.10;50.10;;;;;;5065559;28;42972;-78
2021/12/03 09:06:24;;;;;;;;;;;18.10;50.10;;;;;;5064820;28;43879;-89
2021/12/03 09:08:49;;;;;;;;;;;18.10;50.10;;;;;;5065249;28;43015;-77
2021/12/03 09:11:15;;;;;;;;;;;18.10;50.60;;;;;;5064955;28;43459;-87
2021/12/03 09:13:42;;;;;;;;;;;18.10;50.00;;;;;;5065229;28;42992;-77
2021/12/03 09:16:10;;;;;;;;;;;18.10;50.00;;;;;;5065202;28;42932;-77
2021/12/03 09:18:41;;;;;;;;;;;18.10;50.00;;;;;;5065219;28;43627;-84
2021/12/03 09:21:30;;;;;;;;;;;18.10;50.00;;;;;;5064770;28;42867;-82
2021/12/03 09:26:18;;;;;;;;;;;18.10;49.90;;;;;;5064579;28;43070;-90
2021/12/03 09:28:46;;;;;;;;;;;18.10;49.90;;;;;;5065330;28;42955;-79
2021/12/03 09:31:12;;;;;;;;;;;18.10;49.90;;;;;;5064921;28;43083;-91
2021/12/03 09:33:40;;;;;;;;;;;18.10;49.90;;;;;;5064221;28;42921;-90
2021/12/03 09:36:08;;;;;;;;;;;18.10;49.80;;;;;;5064498;28;43351;-77
2021/12/03 09:38:34;;;;;;;;;;;18.10;49.80;;;;;;5063474;28;42952;-91
2021/12/03 09:41:16;;;;;;;;;;;18.10;49.90;;;;;;5064845;28;43328;-91
2021/12/03 09:43:44;;;;;;;;;;;18.10;49.80;;;;;;5064769;28;42882;-90
2021/12/03 09:46:16;;;;;;;;;;;18.10;49.70;;;;;;5064733;28;42778;-80
2021/12/03 09:51:18;;;;;;;;;;;18.10;49.70;;;;;;5064815;28;43469;-77
2021/12/03 09:56:30;;;;;;;;;;;18.10;49.70;;;;;;5064379;28;43115;-91
2021/12/03 10:15:09;;;;;;;;;;;18.10;49.60;;;;;;5067701;28;42676;-83
2021/12/03 10:20:18;;;;;;;;;;;18.10;49.60;;;;;;5067281;28;43082;-92
2021/12/03 10:39:19;;;;;;;;;;;18.10;49.60;;;;;;5067723;28;42913;-77
2021/12/03 10:43:05;;;;;;;;;;;18.10;49.60;;;;;;5067369;28;43015;-82
2021/12/03 11:36:09;;;;;;;;;;;18.10;49.30;;;;;;5066314;28;42945;-82
2021/12/03 11:44:38;;;;;;;;;;;18.10;49.30;;;;;;5065983;28;43420;-86
2021/12/03 12:25:50;;;;;;;;;;;17.80;36.60;;;;;;5044587;28;42898;-80
2021/12/03 12:29:11;;;;;;;;;;;17.80;37.30;;;;;;5042946;28;43509;-80
2021/12/03 12:37:35;;;;;;;;;;;17.70;37.90;;;;;;5044379;28;42933;-82
2021/12/03 14:02:14;;;;;;;;;;;17.70;43.30;;;;;;5050854;28;42991;-81
2021/12/03 14:10:14;;;;;;;;;;;17.70;43.40;;;;;;5066284;28;43067;-80
2021/12/03 14:37:52;;;;;;;;;;;17.80;43.90;;;;;;5064068;28;43037;-82
2021/12/03 14:54:55;;;;;;;;;;;17.80;44.20;;;;;;5063801;28;42944;-80
2021/12/03 14:57:13;;;;;;;;;;;17.80;44.40;;;;;;5058545;28;43427;-81
2021/12/03 14:59:50;;;;;;;;;;;17.80;44.40;;;;;;5064433;28;43106;-80
2021/12/03 15:02:31;;;;;;;;;;;17.80;44.50;;;;;;5066115;28;44218;-81
2021/12/03 15:05:12;;;;;;;;;;;17.80;44.70;;;;;;5066387;28;43188;-82
2021/12/03 15:07:43;;;;;;;;;;;17.80;44.60;;;;;;5066256;28;43237;-80
2021/12/03 15:10:17;;;;;;;;;;;17.80;44.60;;;;;;5065881;28;42977;-82
2021/12/03 15:13:12;;;;;;;;;;;17.80;45.00;;;;;;5065873;28;42948;-82
2021/12/03 15:31:17;;;;;;;;;;;17.80;44.70;;;;;;5066360;28;42790;-83
2021/12/03 15:36:19;;;;;;;;;;;17.80;45.00;;;;;;5064923;28;42981;-82
2021/12/03 15:38:53;;;;;;;;;;;17.80;44.90;;;;;;5065309;28;43116;-82
2021/12/03 15:52:50;;;;;;;;;;;17.90;45.30;;;;;;5066611;28;43020;-81
2021/12/03 16:06:19;;;;;;;;;;;17.90;45.50;;;;;;5066543;28;42930;-80
2021/12/03 16:08:36;;;;;;;;;;;17.90;45.50;;;;;;5065347;28;43043;-80
2021/12/03 16:27:03;;;;;;;;;;;17.90;45.70;;;;;;5065616;28;43050;-78
2021/12/03 16:51:50;;;;;;;;;;;17.90;46.20;;;;;;5065681;28;42864;-78
2021/12/03 16:54:21;;;;;;;;;;;17.90;46.20;;;;;;5065277;28;42818;-77
2021/12/03 16:56:50;;;;;;;;;;;17.90;46.30;;;;;;5065435;28;42854;-77
2021/12/03 16:59:16;;;;;;;;;;;18.00;46.30;;;;;;5064102;28;44324;-77
2021/12/03 17:01:47;;;;;;;;;;;18.00;46.40;;;;;;5064954;28;42935;-77
2021/12/03 17:04:40;;;;;;;;;;;18.00;46.40;;;;;;5064920;28;42883;-77
2021/12/03 17:46:36;;;;;;;;;;;18.00;46.90;;;;;;5067132;28;43170;-80
2021/12/03 17:56:01;;;;;;;;;;;18.00;47.00;;;;;;5071234;28;42982;-80
2021/12/03 17:57:44;;;;;;;;;;;18.00;47.00;;;;;;5044886;28;42911;-79
2021/12/03 18:00:30;;;;;;;;;;;18.00;47.60;;;;;;5050881;28;42968;-80
2021/12/03 18:03:05;;;;;;;;;;;18.00;47.00;;;;;;5048902;28;43550;-79
2021/12/03 18:56:29;;;;;;;;;;;18.10;47.60;;;;;;5058928;28;44165;-79
2021/12/03 18:58:58;;;;;;;;;;;18.10;47.60;;;;;;5058338;28;42989;-79
2021/12/03 19:01:28;;;;;;;;;;;18.20;47.60;;;;;;5044726;28;43270;-79
2021/12/03 19:09:12;;;;;;;;;;;18.20;47.70;;;;;;5063018;28;42926;-79
2021/12/03 19:14:04;;;;;;;;;;;18.20;47.70;;;;;;5060975;28;43133;-79
2021/12/03 19:16:29;;;;;;;;;;;18.20;47.70;;;;;;5062047;28;43176;-78
2021/12/03 19:18:58;;;;;;;;;;;18.20;47.70;;;;;;5064889;28;43041;-78
2021/12/03 19:21:26;;;;;;;;;;;18.20;47.70;;;;;;5064051;28;43009;-79
2021/12/03 19:23:54;;;;;;;;;;;18.20;47.80;;;;;;5064518;28;44226;-78
2021/12/03 19:26:20;;;;;;;;;;;18.20;47.80;;;;;;5063688;28;44490;-78
2021/12/03 19:28:46;;;;;;;;;;;18.20;47.70;;;;;;5064106;28;42882;-78
2021/12/03 19:31:12;;;;;;;;;;;18.20;47.80;;;;;;5062249;28;43612;-78
2021/12/03 19:33:38;;;;;;;;;;;18.20;47.80;;;;;;5063981;28;43050;-78
2021/12/03 19:36:04;;;;;;;;;;;18.20;47.80;;;;;;5064675;28;43316;-79
2021/12/03 19:38:30;;;;;;;;;;;18.20;47.80;;;;;;5064006;28;43011;-78
2021/12/03 19:41:02;;;;;;;;;;;18.20;47.80;;;;;;5065028;28;43046;-79
2021/12/03 19:43:33;;;;;;;;;;;18.20;47.80;;;;;;5065062;28;42878;-79
2021/12/03 19:46:05;;;;;;;;;;;18.20;47.80;;;;;;5045449;28;42997;-79
2021/12/03 19:51:20;;;;;;;;;;;18.30;47.90;;;;;;5054256;28;43209;-79
2021/12/03 19:54:05;;;;;;;;;;;18.20;47.90;;;;;;5064513;28;43013;-78
2021/12/03 19:56:32;;;;;;;;;;;18.20;47.90;;;;;;5063654;28;43543;-79
2021/12/03 19:58:58;;;;;;;;;;;18.20;47.90;;;;;;5064093;28;43024;-79
2021/12/03 20:01:25;;;;;;;;;;;18.20;47.90;;;;;;5063715;28;44416;-79
2021/12/03 20:03:53;;;;;;;;;;;18.30;48.00;;;;;;5064105;28;42938;-78
2021/12/03 20:06:20;;;;;;;;;;;18.30;48.00;;;;;;5064481;28;43589;-79
2021/12/03 20:08:46;;;;;;;;;;;18.30;48.00;;;;;;5064331;28;43020;-77
2021/12/03 20:11:12;;;;;;;;;;;18.30;48.10;;;;;;5063965;28;44198;-79
2021/12/03 20:13:43;;;;;;;;;;;18.30;48.10;;;;;;5064082;28;42862;-80
2021/12/03 20:18:42;;;;;;;;;;;18.30;48.10;;;;;;5062995;28;42965;-79
2021/12/03 20:21:10;;;;;;;;;;;18.30;48.00;;;;;;5063873;28;43692;-78
2021/12/03 20:23:42;;;;;;;;;;;18.30;48.10;;;;;;5062243;28;43349;-78
2021/12/03 20:31:17;;;;;;;;;;;18.30;48.10;;;;;;5060725;28;43533;-77
2021/12/03 20:38:46;;;;;;;;;;;18.30;48.10;;;;;;5063385;28;43011;-78
2021/12/03 20:41:16;;;;;;;;;;;18.30;48.10;;;;;;5064098;28;44116;-79
2021/12/03 20:44:01;;;;;;;;;;;18.30;48.10;;;;;;5061790;28;43045;-79
2021/12/03 20:52:04;;;;;;;;;;;18.40;48.30;;;;;;5061113;28;43090;-80
2021/12/03 20:54:36;;;;;;;;;;;18.30;48.20;;;;;;5059946;28;43117;-78
2021/12/03 20:57:27;;;;;;;;;;;18.30;48.20;;;;;;5058985;28;43977;-80
2021/12/03 21:10:42;;;;;;;;;;;18.40;48.40;;;;;;5062376;28;43013;-77
2021/12/03 21:13:10;;;;;;;;;;;18.40;48.40;;;;;;5060541;28;44429;-76
2021/12/03 21:18:39;;;;;;;;;;;18.40;48.30;;;;;;5061512;28;43009;-76
2021/12/03 21:21:32;;;;;;;;;;;18.40;48.30;;;;;;5062421;28;42988;-78
2021/12/03 21:23:49;;;;;;;;;;;18.40;48.40;;;;;;5061921;28;43788;-78
2021/12/03 21:26:19;;;;;;;;;;;18.40;48.40;;;;;;5061662;28;42852;-77
2021/12/03 21:41:22;;;;;;;;;;;18.40;48.70;;;;;;5063765;28;42964;-76
2021/12/03 21:43:52;;;;;;;;;;;18.40;48.70;;;;;;5064341;28;42905;-78
2021/12/03 21:46:19;;;;;;;;;;;18.40;48.80;;;;;;5064284;28;42951;-80
2021/12/03 21:48:45;;;;;;;;;;;18.40;48.90;;;;;;5064270;28;43472;-77
2021/12/03 21:51:10;;;;;;;;;;;18.40;49.00;;;;;;5064989;28;42886;-77
2021/12/03 21:53:36;;;;;;;;;;;18.40;49.00;;;;;;5064348;28;42977;-77
2021/12/03 21:56:02;;;;;;;;;;;18.40;49.10;;;;;;5064146;28;42995;-80
2021/12/03 21:58:27;;;;;;;;;;;18.40;49.10;;;;;;5063874;28;43046;-80
2021/12/03 22:00:53;;;;;;;;;;;18.40;49.10;;;;;;5057809;28;43283;-83
2021/12/03 22:03:19;;;;;;;;;;;18.40;49.10;;;;;;5062559;28;43004;-83
2021/12/03 22:05:44;;;;;;;;;;;18.50;49.30;;;;;;5067586;28;43198;-81
2021/12/03 22:08:11;;;;;;;;;;;18.50;49.10;;;;;;5060488;28;43696;-82
2021/12/03 22:10:37;;;;;;;;;;;18.40;49.10;;;;;;5066613;28;43043;-83
2021/12/03 22:13:03;;;;;;;;;;;18.50;49.20;;;;;;5065472;28;42960;-81
2021/12/03 22:15:28;;;;;;;;;;;18.50;49.20;;;;;;5065744;28;42972;-83
2021/12/03 22:17:54;;;;;;;;;;;18.40;49.10;;;;;;5065646;28;42985;-81
2021/12/03 22:20:20;;;;;;;;;;;18.50;49.10;;;;;;5066722;28;42995;-82
2021/12/03 22:22:45;;;;;;;;;;;18.50;49.10;;;;;;5062546;28;44641;-83
2021/12/03 22:25:11;;;;;;;;;;;18.50;49.10;;;;;;5058624;28;42901;-83
2021/12/03 22:27:36;;;;;;;;;;;18.50;49.10;;;;;;5064235;28;42924;-83
2021/12/03 22:30:02;;;;;;;;;;;18.50;49.10;;;;;;5066758;28;43087;-83
2021/12/03 22:32:28;;;;;;;;;;;18.50;49.10;;;;;;5067078;28;42838;-82
2021/12/03 22:34:53;;;;;;;;;;;18.50;49.10;;;;;;5065366;28;43046;-83
2021/12/03 22:37:19;;;;;;;;;;;18.50;49.10;;;;;;5067674;28;43039;-84
2021/12/03 22:39:46;;;;;;;;;;;18.50;49.10;;;;;;5066461;28;42944;-81
2021/12/03 22:42:12;;;;;;;;;;;18.50;49.00;;;;;;5065317;28;43291;-83
2021/12/03 22:44:38;;;;;;;;;;;18.50;49.10;;;;;;5064910;28;43000;-82